Time;durP1;ratioP1;P1;durP2;ratioP2;P2;SDS_P1;SDS_P2;PMS_P1;PMS_P2;Temp;Humidity;BMP_temperature;BMP_pressure;BME280_temperature;BME280_humidity;BME280_pressure;Samples;Min_cycle;Max_cycle;Signal;HPM_P1;HPM_P2
2023/04/01 00:01:28;;;;;;;2.15;1.45;;;;;;;10.47;54.31;97668.72;5087374;28;20037;-71
2023/04/01 00:03:55;;;;;;;2.60;1.63;;;;;;;10.47;54.51;97672.22;5088344;28;20046;-71
2023/04/01 00:06:23;;;;;;;3.33;2.00;;;;;;;10.46;54.55;97704.97;5087251;28;20036;-71
2023/04/01 00:08:50;;;;;;;3.47;1.95;;;;;;;10.42;54.68;97670.91;5087858;28;20111;-71
2023/04/01 00:11:19;;;;;;;4.07;1.83;;;;;;;10.39;54.59;97682.59;5088242;28;20036;-71
2023/04/01 00:13:45;;;;;;;3.58;1.60;;;;;;;10.39;54.72;97700.28;5088075;28;20111;-72
2023/04/01 00:16:13;;;;;;;2.63;1.63;;;;;;;10.37;54.84;97716.31;5086992;28;20047;-72
2023/04/01 00:18:40;;;;;;;3.58;1.77;;;;;;;10.36;54.76;97698.72;5086933;28;20048;-73
2023/04/01 00:21:08;;;;;;;3.50;1.60;;;;;;;9.56;54.50;97586.97;5087689;28;20280;-72
2023/04/01 00:23:35;;;;;;;2.88;1.65;;;;;;;10.33;54.84;97712.22;5086787;28;20032;-72
2023/04/01 00:26:02;;;;;;;3.67;1.70;;;;;;;10.31;54.77;97715.94;5086879;28;20036;-72
2023/04/01 00:28:31;;;;;;;2.55;1.60;;;;;;;10.28;54.94;97714.38;5087923;28;20057;-72
2023/04/01 00:30:57;;;;;;;2.60;1.42;;;;;;;10.27;54.84;97702.97;5087784;28;20044;-72
2023/04/01 00:33:25;;;;;;;2.67;1.77;;;;;;;10.30;54.77;97701.03;5087883;28;20045;-73
2023/04/01 00:35:51;;;;;;;3.08;1.45;;;;;;;10.29;54.74;97705.47;5086633;28;20062;-72
2023/04/01 00:38:18;;;;;;;2.80;1.60;;;;;;;10.28;54.81;97691.41;5087632;28;20208;-72
2023/04/01 00:40:47;;;;;;;3.20;1.63;;;;;;;10.28;54.63;97695.84;5087381;28;20123;-71
2023/04/01 00:43:17;;;;;;;2.70;1.70;;;;;;;10.05;54.98;97652.69;5087521;28;20048;-71
2023/04/01 00:45:48;;;;;;;3.08;1.80;;;;;;;10.25;54.72;97698.75;5087038;28;20248;-71
2023/04/01 00:48:17;;;;;;;2.70;1.70;;;;;;;10.24;54.93;97684.66;5086256;28;20086;-72
2023/04/01 00:50:46;;;;;;;3.00;1.60;;;;;;;10.23;54.68;97688.28;5087336;28;20184;-73
2023/04/01 00:53:14;;;;;;;3.20;1.85;;;;;;;10.23;54.84;97687.44;5087204;28;20263;-72
2023/04/01 00:55:47;;;;;;;3.47;1.60;;;;;;;10.23;54.80;97690.09;5087337;28;20040;-72
2023/04/01 00:58:17;;;;;;;4.32;1.90;;;;;;;10.22;54.90;97691.91;5086449;28;20041;-71
2023/04/01 01:00:48;;;;;;;4.20;1.70;;;;;;;10.04;54.61;97653.66;5086039;28;20127;-71
2023/04/01 01:03:15;;;;;;;3.15;1.60;;;;;;;10.19;54.82;97691.28;5086046;28;20036;-71
2023/04/01 01:06:07;;;;;;;4.15;1.55;;;;;;;10.20;55.17;97685.88;5086193;28;20041;-71
2023/04/01 01:08:51;;;;;;;3.58;1.90;;;;;;;10.19;54.97;97683.34;5086744;28;20178;-71
2023/04/01 01:11:26;;;;;;;3.40;1.70;;;;;;;10.19;54.84;97676.25;5086646;28;20040;-71
2023/04/01 01:14:02;;;;;;;3.08;1.52;;;;;;;10.20;54.77;97672.66;5085646;28;20051;-72
2023/04/01 01:16:39;;;;;;;4.20;1.83;;;;;;;10.21;54.99;97686.72;5085739;28;20123;-71
2023/04/01 01:19:19;;;;;;;4.75;2.05;;;;;;;10.22;54.84;97686.59;5086410;28;20041;-71
2023/04/01 01:22:06;;;;;;;2.20;1.50;;;;;;;10.19;54.87;97665.66;5086332;28;20307;-71
2023/04/01 01:24:53;;;;;;;4.32;1.77;;;;;;;10.16;55.11;97659.78;5086257;28;20051;-71
2023/04/01 01:27:22;;;;;;;4.35;1.80;;;;;;;9.75;54.74;97616.28;5085437;28;20357;-71
2023/04/01 01:30:15;;;;;;;5.47;1.70;;;;;;;10.17;54.96;97646.41;5085474;28;20082;-71
2023/04/01 01:33:07;;;;;;;3.08;1.80;;;;;;;10.17;54.96;97645.56;5086510;28;20119;-71
2023/04/01 01:35:39;;;;;;;3.45;1.67;;;;;;;10.14;54.76;97645.81;5050306;28;20053;-71
2023/04/01 01:38:10;;;;;;;3.08;1.60;;;;;;;9.44;54.81;97519.19;5085663;28;20040;-71
2023/04/01 01:40:40;;;;;;;3.28;1.88;;;;;;;10.13;54.63;97644.97;5085087;28;20040;-71
2023/04/01 01:43:12;;;;;;;3.55;1.80;;;;;;;10.13;55.02;97654.72;5085187;28;20304;-71
2023/04/01 01:45:44;;;;;;;4.05;1.70;;;;;;;10.11;55.04;97656.66;5085685;28;20036;-70
2023/04/01 01:48:12;;;;;;;4.07;1.67;;;;;;;10.12;54.80;97658.34;5085079;28;20044;-71
2023/04/01 01:50:43;;;;;;;3.08;1.50;;;;;;;10.11;54.88;97656.66;5086145;28;20048;-71
2023/04/01 01:53:12;;;;;;;3.03;1.85;;;;;;;10.10;54.99;97658.47;5086445;28;20044;-71
2023/04/01 01:55:41;;;;;;;3.40;1.60;;;;;;;10.10;55.17;97660.25;5086043;28;20107;-71
2023/04/01 01:58:13;;;;;;;2.58;1.42;;;;;;;10.11;55.57;97660.13;5085764;28;20051;-71
2023/04/01 02:00:41;;;;;;;2.80;1.60;;;;;;;10.09;55.24;97667.38;5085905;28;20219;-71
2023/04/01 02:03:09;;;;;;;2.38;1.38;;;;;;;10.12;55.20;97669.78;5086336;28;20102;-71
2023/04/01 02:05:37;;;;;;;3.00;1.65;;;;;;;10.13;55.11;97668.81;5085993;28;20055;-71
2023/04/01 02:08:10;;;;;;;2.50;1.50;;;;;;;10.10;55.61;97684.94;5086220;28;20054;-70
2023/04/01 02:10:41;;;;;;;4.28;1.73;;;;;;;10.09;55.41;97664.72;5085359;28;20044;-71
2023/04/01 02:13:16;;;;;;;3.30;1.95;;;;;;;9.83;55.87;97648.25;5084817;28;20259;-71
2023/04/01 02:15:48;;;;;;;3.63;1.92;;;;;;;10.04;55.96;97668.69;5085577;28;20036;-71
2023/04/01 02:18:17;;;;;;;2.92;1.50;;;;;;;10.03;55.70;97659.91;5085577;28;20192;-71
2023/04/01 02:20:45;;;;;;;3.65;1.55;;;;;;;10.04;55.88;97666.03;5085604;28;20040;-71
2023/04/01 02:23:14;;;;;;;3.58;2.08;;;;;;;9.94;55.74;97660.66;5085685;28;20040;-71
2023/04/01 02:25:43;;;;;;;2.95;1.70;;;;;;;9.88;55.67;97645.25;5085769;28;20319;-71
2023/04/01 02:28:15;;;;;;;2.88;2.05;;;;;;;9.83;56.17;97640.31;5085714;28;20062;-70
2023/04/01 02:30:45;;;;;;;3.65;1.80;;;;;;;9.97;55.77;97673.63;5085114;28;20192;-71
2023/04/01 02:33:12;;;;;;;4.70;2.00;;;;;;;9.82;55.90;97661.63;5085657;28;20047;-71
2023/04/01 02:35:39;;;;;;;2.83;1.73;;;;;;;9.95;56.05;97681.69;5085688;28;20040;-71
2023/04/01 02:38:07;;;;;;;3.00;1.40;;;;;;;9.19;56.05;97567.78;5085828;28;20108;-72
2023/04/01 02:40:44;;;;;;;3.28;1.67;;;;;;;9.90;56.57;97683.03;5085400;28;20300;-71
2023/04/01 02:43:11;;;;;;;4.90;2.17;;;;;;;9.90;56.09;97672.44;5085549;28;20044;-71
2023/04/01 02:45:38;;;;;;;3.40;1.70;;;;;;;9.89;56.17;97681.34;5085107;28;20055;-71
2023/04/01 02:48:06;;;;;;;3.70;1.70;;;;;;;9.87;56.34;97675.31;5085778;28;20041;-71
2023/04/01 02:50:32;;;;;;;4.53;1.98;;;;;;;9.86;56.06;97674.47;5085520;28;20201;-71
2023/04/01 02:52:59;;;;;;;3.83;1.90;;;;;;;9.85;55.98;97682.53;5085466;28;20033;-71
2023/04/01 02:55:26;;;;;;;4.20;1.77;;;;;;;9.84;56.18;97686.16;5085117;28;20049;-72
2023/04/01 02:57:54;;;;;;;2.33;1.50;;;;;;;9.82;56.22;97688.06;5085083;28;20189;-71
2023/04/01 03:00:21;;;;;;;3.75;1.92;;;;;;;9.82;56.36;97691.56;5084294;28;20305;-71
2023/04/01 03:02:48;;;;;;;3.25;1.65;;;;;;;9.76;56.85;97678.81;5084269;28;20037;-72
2023/04/01 03:05:15;;;;;;;6.28;2.33;;;;;;;9.74;56.79;97695.75;5084824;28;20048;-71
2023/04/01 03:07:42;;;;;;;3.30;1.50;;;;;;;9.72;57.06;97693.25;5085117;28;20231;-71
2023/04/01 03:10:09;;;;;;;4.35;1.60;;;;;;;9.53;57.04;97685.03;5085007;28;20032;-71
2023/04/01 03:12:36;;;;;;;3.22;1.60;;;;;;;9.69;56.96;97693.47;5084920;28;20052;-71
2023/04/01 03:15:06;;;;;;;3.72;1.77;;;;;;;9.69;57.23;97692.63;5084131;28;20040;-71
2023/04/01 03:17:33;;;;;;;5.32;2.05;;;;;;;9.69;56.96;97682.06;5084649;28;20043;-71
2023/04/01 03:20:00;;;;;;;3.95;1.77;;;;;;;9.71;57.07;97680.97;5084388;28;20044;-71
2023/04/01 03:22:27;;;;;;;3.88;2.55;;;;;;;9.51;56.89;97657.88;5087134;28;20044;-71
2023/04/01 03:24:53;;;;;;;3.72;1.65;;;;;;;9.67;56.95;97679.53;5087786;28;20067;-71
2023/04/01 03:27:20;;;;;;;4.25;1.75;;;;;;;9.66;56.87;97688.44;5088048;28;20041;-71
2023/04/01 03:29:47;;;;;;;3.38;2.08;;;;;;;9.63;57.11;97697.44;5087731;28;20309;-71
2023/04/01 03:32:15;;;;;;;3.47;1.98;;;;;;;9.59;57.29;97703.09;5088916;28;20280;-71
2023/04/01 03:34:42;;;;;;;5.47;1.60;;;;;;;9.57;57.11;97678.56;5088763;28;20036;-70
2023/04/01 03:37:09;;;;;;;3.40;1.52;;;;;;;9.53;57.43;97671.81;5088500;28;20038;-71
2023/04/01 03:39:36;;;;;;;4.35;1.80;;;;;;;9.53;57.40;97691.19;5087521;28;20036;-71
2023/04/01 03:42:03;;;;;;;2.88;1.70;;;;;;;9.54;57.45;97686.72;5088950;28;20048;-71
2023/04/01 03:44:32;;;;;;;2.92;1.50;;;;;;;9.33;57.42;97652.19;5087747;28;20047;-71
2023/04/01 03:46:58;;;;;;;3.13;1.50;;;;;;;9.53;57.37;97698.28;5088595;28;20170;-71
2023/04/01 03:49:27;;;;;;;5.38;2.08;;;;;;;9.03;57.67;97613.06;5087394;28;20040;-71
2023/04/01 03:51:53;;;;;;;2.72;1.75;;;;;;;9.32;57.38;97661.06;5088343;28;20047;-70
2023/04/01 03:54:20;;;;;;;2.72;1.90;;;;;;;9.49;57.42;97684.44;5088133;28;20043;-71
2023/04/01 03:56:47;;;;;;;4.82;2.17;;;;;;;9.51;57.35;97684.31;5088324;28;20052;-71
2023/04/01 03:59:14;;;;;;;2.83;1.50;;;;;;;9.50;57.45;97675.56;5087190;28;20041;-71
2023/04/01 04:01:41;;;;;;;3.40;1.75;;;;;;;9.51;57.53;97673.75;5088413;28;20277;-71
2023/04/01 04:04:08;;;;;;;4.05;2.17;;;;;;;9.49;57.41;97675.66;5070582;28;20215;-71
2023/04/01 04:06:36;;;;;;;3.63;1.80;;;;;;;9.49;57.42;97671.22;5087954;28;20036;-71
2023/04/01 04:09:03;;;;;;;2.67;1.77;;;;;;;9.50;57.25;97666.78;5088090;28;20037;-72
2023/04/01 04:11:32;;;;;;;3.08;1.50;;;;;;;9.49;57.20;97676.50;5088489;28;20053;-71
2023/04/01 04:13:59;;;;;;;4.63;2.05;;;;;;;9.48;57.18;97671.34;5087842;28;20098;-71
2023/04/01 04:16:26;;;;;;;3.13;1.50;;;;;;;9.47;57.29;97675.78;5086937;28;20071;-72
2023/04/01 04:18:53;;;;;;;2.55;1.70;;;;;;;9.46;57.32;97670.63;5086713;28;20212;-71
2023/04/01 04:21:20;;;;;;;2.53;1.50;;;;;;;9.45;57.16;97671.56;5088011;28;20045;-71
2023/04/01 04:23:48;;;;;;;4.20;1.65;;;;;;;9.44;57.27;97701.63;5087796;28;20045;-71
2023/04/01 04:26:15;;;;;;;2.85;1.50;;;;;;;9.27;57.06;97664.06;5087514;28;20052;-72
2023/04/01 04:28:42;;;;;;;5.18;2.05;;;;;;;9.44;56.92;97683.97;5086666;28;20289;-71
2023/04/01 04:31:09;;;;;;;3.13;1.80;;;;;;;9.44;56.79;97686.59;5086643;28;20036;-71
2023/04/01 04:33:36;;;;;;;3.10;1.55;;;;;;;9.46;56.87;97686.47;5086312;28;20053;-71
2023/04/01 04:36:05;;;;;;;4.13;1.83;;;;;;;9.43;57.11;97687.56;5086484;28;20040;-72
2023/04/01 04:38:31;;;;;;;3.17;1.60;;;;;;;9.44;56.90;97681.31;5086409;28;20039;-72
2023/04/01 04:41:00;;;;;;;3.33;2.03;;;;;;;9.45;57.06;97687.44;5087029;28;20044;-72
2023/04/01 04:43:27;;;;;;;5.45;2.25;;;;;;;9.26;56.73;97659.75;5087573;28;20055;-71
2023/04/01 04:45:53;;;;;;;8.13;2.65;;;;;;;9.44;56.82;97699.81;5087515;28;20044;-72
2023/04/01 04:48:20;;;;;;;3.38;1.83;;;;;;;9.44;56.97;97697.19;5087091;28;20029;-71
2023/04/01 04:50:49;;;;;;;5.00;1.85;;;;;;;9.43;56.85;97686.72;5087343;28;20105;-72
2023/04/01 04:53:17;;;;;;;2.50;1.60;;;;;;;9.23;56.96;97643.28;5086367;28;20330;-71
2023/04/01 04:55:44;;;;;;;2.78;1.70;;;;;;;9.42;56.94;97691.16;5087518;28;20045;-71
2023/04/01 04:58:14;;;;;;;3.83;1.70;;;;;;;9.41;56.95;97686.00;5087104;28;20045;-72
2023/04/01 05:00:40;;;;;;;4.47;2.20;;;;;;;9.41;56.87;97691.28;5086843;28;20040;-70
2023/04/01 05:03:07;;;;;;;3.97;1.90;;;;;;;9.40;56.72;97698.38;5086626;28;20048;-71
2023/04/01 05:05:34;;;;;;;2.92;1.65;;;;;;;8.90;56.85;97623.72;5087042;28;20208;-71
2023/04/01 05:08:02;;;;;;;4.65;2.22;;;;;;;8.30;56.89;97547.31;5086985;28;20040;-72
2023/04/01 05:10:29;;;;;;;2.40;1.42;;;;;;;9.38;57.13;97688.84;5086908;28;20047;-71
2023/04/01 05:12:56;;;;;;;2.85;1.65;;;;;;;9.19;56.99;97666.41;5087168;28;20074;-72
2023/04/01 05:15:24;;;;;;;2.63;1.33;;;;;;;9.37;57.09;97693.28;5086981;28;20058;-71
2023/04/01 05:17:51;;;;;;;2.60;1.77;;;;;;;9.40;57.06;97687.78;5086699;28;20042;-71
2023/04/01 05:20:18;;;;;;;2.63;1.60;;;;;;;9.39;57.02;97685.25;5086744;28;20052;-71
2023/04/01 05:22:45;;;;;;;3.88;2.20;;;;;;;9.39;56.96;97691.38;5086697;28;20044;-71
2023/04/01 05:25:11;;;;;;;3.58;1.60;;;;;;;9.41;57.07;97689.47;5086717;28;20330;-71
2023/04/01 05:27:38;;;;;;;3.22;1.58;;;;;;;9.44;56.87;97686.59;5085275;28;20055;-71
2023/04/01 05:30:06;;;;;;;2.60;1.60;;;;;;;9.45;57.37;97687.44;5086282;28;20058;-72
2023/04/01 05:32:34;;;;;;;2.40;1.50;;;;;;;9.44;57.12;97685.75;5085649;28;20036;-72
2023/04/01 05:35:01;;;;;;;3.13;1.95;;;;;;;9.29;57.12;97677.16;5085372;28;20044;-72
2023/04/01 05:37:28;;;;;;;4.53;2.20;;;;;;;9.47;57.21;97694.28;5086359;28;20048;-71
2023/04/01 05:39:55;;;;;;;3.50;1.55;;;;;;;9.47;57.23;97704.03;5086255;28;20040;-71
2023/04/01 05:42:21;;;;;;;3.38;1.98;;;;;;;9.47;57.39;97694.28;5085919;28;20061;-71
2023/04/01 05:44:48;;;;;;;3.50;1.40;;;;;;;9.49;57.36;97710.03;5085436;28;20037;-72
2023/04/01 05:47:15;;;;;;;3.58;1.50;;;;;;;9.50;57.42;97696.72;5085985;28;20040;-72
2023/04/01 05:49:43;;;;;;;2.65;1.77;;;;;;;9.50;57.47;97709.09;5085917;28;20052;-72
2023/04/01 05:52:10;;;;;;;2.40;1.42;;;;;;;9.20;57.47;97657.56;5085843;28;20312;-71
2023/04/01 05:54:37;;;;;;;2.60;1.67;;;;;;;9.56;57.44;97716.53;5086173;28;20102;-71
2023/04/01 05:57:04;;;;;;;3.90;1.90;;;;;;;9.61;57.48;97717.88;5085656;28;20079;-71
2023/04/01 05:59:32;;;;;;;2.65;1.58;;;;;;;9.67;57.31;97742.16;5085634;28;20041;-72
2023/04/01 06:01:59;;;;;;;3.38;2.15;;;;;;;9.77;57.12;97746.63;5085405;28;20200;-72
2023/04/01 06:04:26;;;;;;;3.13;1.55;;;;;;;9.87;56.91;97744.97;5086230;28;20046;-72
2023/04/01 06:06:54;;;;;;;3.17;1.60;;;;;;;10.01;56.62;97741.25;5085195;28;20071;-72
2023/04/01 06:09:26;;;;;;;3.65;1.90;;;;;;;10.17;56.63;97743.53;5084827;28;20042;-71
2023/04/01 06:12:30;;;;;;;3.92;1.42;;;;;;;10.04;56.77;97698.66;5085632;28;20040;-72
2023/04/01 06:15:11;;;;;;;2.38;1.50;;;;;;;10.56;55.91;97742.16;5084526;28;20039;-71
2023/04/01 06:17:52;;;;;;;3.72;1.50;;;;;;;10.87;55.35;97740.53;5085946;28;20049;-70
2023/04/01 06:20:26;;;;;;;2.03;1.30;;;;;;;11.20;54.40;97731.59;5085557;28;20166;-71
2023/04/01 06:23:10;;;;;;;;;;;;;;;11.39;54.11;97734.41;5086441;28;20119;-71
2023/04/01 06:25:48;;;;;;;2.58;1.20;;;;;;;11.39;53.48;97699.09;5085968;28;20065;-71
2023/04/01 06:28:48;;;;;;;3.60;2.00;;;;;;;11.64;53.30;97727.88;5084802;28;20044;-71
2023/04/01 06:31:27;;;;;;;3.55;1.50;;;;;;;11.84;53.00;97739.44;5068716;28;20315;-71
2023/04/01 06:34:09;;;;;;;3.65;1.60;;;;;;;12.04;52.39;97735.09;5085640;28;20090;-71
2023/04/01 06:37:03;;;;;;;2.42;1.48;;;;;;;12.22;52.29;97733.53;5085561;28;20044;-72
2023/04/01 06:39:51;;;;;;;4.80;1.67;;;;;;;12.33;51.60;97737.88;5084316;28;20107;-71
2023/04/01 06:42:33;;;;;;;3.35;1.75;;;;;;;12.41;51.57;97730.94;5084245;28;20044;-71
2023/04/01 06:45:10;;;;;;;2.72;1.50;;;;;;;12.58;51.12;97747.19;5085138;28;20044;-71
2023/04/01 06:47:50;;;;;;;2.53;1.50;;;;;;;12.82;50.45;97727.25;5085525;28;20036;-71
2023/04/01 06:50:25;;;;;;;3.00;1.52;;;;;;;13.00;49.82;97724.72;5084404;28;20040;-71
2023/04/01 06:52:59;;;;;;;3.35;1.85;;;;;;;12.92;50.03;97743.19;5085406;28;20048;-71
2023/04/01 06:55:37;;;;;;;3.40;1.60;;;;;;;12.94;50.11;97725.28;5084380;28;20049;-71
2023/04/01 06:58:06;;;;;;;3.15;1.55;;;;;;;12.49;50.70;97647.88;5088196;28;20039;-71
2023/04/01 07:00:37;;;;;;;5.45;1.90;;;;;;;13.08;50.38;97748.81;5089381;28;20204;-71
2023/04/01 07:03:11;;;;;;;2.50;1.45;;;;;;;12.43;50.25;97630.69;5089105;28;20158;-71
2023/04/01 07:05:38;;;;;;;3.42;1.65;;;;;;;13.21;50.54;97763.66;5089234;28;20123;-72
2023/04/01 07:08:10;;;;;;;2.63;1.48;;;;;;;13.41;50.15;97736.91;5089289;28;20289;-71
2023/04/01 07:10:46;;;;;;;3.55;1.45;;;;;;;13.28;49.48;97695.63;5088114;28;20281;-71
2023/04/01 07:13:18;;;;;;;3.13;1.60;;;;;;;13.50;49.07;97718.44;5088884;28;20052;-71
2023/04/01 07:15:50;;;;;;;2.03;1.30;;;;;;;13.78;49.28;97733.53;5087971;28;20033;-71
2023/04/01 07:18:21;;;;;;;3.15;1.63;;;;;;;13.93;48.66;97736.56;5088639;28;20041;-71
2023/04/01 07:20:50;;;;;;;3.33;1.55;;;;;;;14.09;48.53;97745.63;5071773;28;20041;-72
2023/04/01 07:23:23;;;;;;;2.20;1.33;;;;;;;14.28;48.22;97759.84;5087838;28;20292;-71
2023/04/01 07:25:54;;;;;;;2.97;1.90;;;;;;;14.31;47.43;97768.41;5089177;28;20104;-71
2023/04/01 07:28:22;;;;;;;3.10;1.48;;;;;;;14.39;48.07;97749.84;5088386;28;20322;-72
2023/04/01 07:30:59;;;;;;;2.72;1.50;;;;;;;14.49;46.43;97768.47;5087564;28;20036;-71
2023/04/01 07:33:34;;;;;;;3.08;1.33;;;;;;;14.61;47.20;97754.00;5087605;28;20216;-72
2023/04/01 07:36:06;;;;;;;2.70;1.40;;;;;;;14.66;46.42;97761.56;5088916;28;20048;-72
2023/04/01 07:38:41;;;;;;;2.97;1.95;;;;;;;14.35;46.86;97707.66;5070420;28;20207;-72
2023/04/01 07:41:20;;;;;;;2.00;1.33;;;;;;;14.81;46.28;97753.91;5087104;28;20117;-70
2023/04/01 07:44:02;;;;;;;2.85;1.65;;;;;;;15.03;45.41;97767.66;5088488;28;20108;-71
2023/04/01 07:46:50;;;;;;;3.15;1.70;;;;;;;15.14;44.62;97747.91;5087355;28;20040;-71
2023/04/01 07:49:23;;;;;;;2.72;1.60;;;;;;;15.22;46.80;97764.00;5088110;28;20043;-71
2023/04/01 07:51:58;;;;;;;3.10;1.73;;;;;;;15.24;45.74;97748.69;5087116;28;20098;-70
2023/04/01 07:54:33;;;;;;;2.83;1.40;;;;;;;15.39;45.10;97756.97;5088113;28;20296;-71
2023/04/01 07:57:05;;;;;;;3.90;1.50;;;;;;;15.34;45.06;97754.78;5087995;28;20054;-71
2023/04/01 07:59:42;;;;;;;2.60;1.40;;;;;;;15.16;44.71;97729.09;5088386;28;20051;-71
2023/04/01 08:02:20;;;;;;;2.95;1.58;;;;;;;15.34;44.67;97760.13;5087876;28;20052;-72
2023/04/01 08:05:01;;;;;;;2.58;1.48;;;;;;;14.86;44.16;97693.78;5087929;28;20040;-71
2023/04/01 08:07:36;;;;;;;3.42;1.60;;;;;;;14.35;45.86;97588.56;5087037;28;20036;-70
2023/04/01 08:10:09;;;;;;;3.22;1.40;;;;;;;15.57;45.22;97759.63;5087539;28;20090;-71
2023/04/01 08:12:47;;;;;;;2.35;1.55;;;;;;;15.78;44.24;97745.97;5087144;28;20048;-71
2023/04/01 08:15:21;;;;;;;2.60;1.50;;;;;;;15.67;44.21;97742.56;5088359;28;20037;-71
2023/04/01 08:17:57;;;;;;;2.88;1.40;;;;;;;15.69;44.02;97748.59;5087683;28;20068;-71
2023/04/01 08:20:33;;;;;;;3.13;1.80;;;;;;;15.90;43.93;97761.59;5087588;28;20032;-71
2023/04/01 08:23:08;;;;;;;2.97;1.70;;;;;;;15.72;45.22;97771.47;5087727;28;20280;-71
2023/04/01 08:25:34;;;;;;;;;;;;;;;15.43;42.42;97774.38;5088087;28;20044;-72
2023/04/01 08:28:10;;;;;;;2.13;1.42;;;;;;;15.16;44.58;97767.28;5086784;28;19917;-72
2023/04/01 08:30:44;;;;;;;3.03;1.67;;;;;;;14.91;44.76;97774.19;5087300;28;20040;-71
2023/04/01 08:33:16;;;;;;;3.45;1.83;;;;;;;14.81;45.58;97772.56;5087701;28;20045;-71
2023/04/01 08:35:51;;;;;;;3.45;1.85;;;;;;;14.50;46.13;97745.31;5086556;28;20043;-71
2023/04/01 08:38:24;;;;;;;2.60;1.77;;;;;;;14.22;47.13;97728.47;5087058;28;20036;-71
2023/04/01 08:41:19;;;;;;;1.90;1.23;;;;;;;14.45;45.13;97780.41;5085962;28;20044;-72
2023/04/01 08:43:53;;;;;;;;;;;;;;;14.25;44.52;97789.47;5086827;28;20086;-72
2023/04/01 08:46:55;;;;;;;2.25;1.30;;;;;;;14.13;45.31;97788.78;5086471;28;19924;-72
2023/04/01 08:49:53;;;;;;;3.22;1.60;;;;;;;14.15;45.52;97796.66;5086156;28;20045;-72
2023/04/01 08:52:35;;;;;;;2.35;1.48;;;;;;;14.19;45.36;97764.25;5070853;28;20194;-72
2023/04/01 08:55:26;;;;;;;2.42;1.40;;;;;;;14.40;44.52;97774.69;5086042;28;20193;-71
2023/04/01 08:58:04;;;;;;;2.38;1.45;;;;;;;14.18;45.25;97749.22;5087093;28;20303;-71
2023/04/01 09:00:49;;;;;;;2.05;1.50;;;;;;;14.29;45.11;97777.53;5086915;28;20106;-72
2023/04/01 09:03:35;;;;;;;;;;;;;;;14.22;44.48;97806.56;5086654;28;20036;-72
2023/04/01 09:06:34;;;;;;;2.20;1.40;;;;;;;14.25;44.55;97782.31;5086929;28;20004;-72
2023/04/01 09:09:36;;;;;;;3.75;1.60;;;;;;;14.23;45.33;97786.94;5086897;28;20040;-72
2023/04/01 09:12:28;;;;;;;2.20;1.20;;;;;;;14.05;44.16;97776.19;5086656;28;20208;-71
2023/04/01 09:15:17;;;;;;;2.15;1.25;;;;;;;14.10;44.46;97800.56;5085713;28;20033;-71
2023/04/01 09:18:14;;;;;;;3.15;1.48;;;;;;;14.00;44.52;97794.44;5086268;28;20051;-71
2023/04/01 09:20:56;;;;;;;3.10;1.40;;;;;;;14.03;45.17;97794.16;5033648;28;20052;-71
2023/04/01 09:23:45;;;;;;;2.45;1.20;;;;;;;13.98;44.07;97798.22;5086585;28;20055;-72
2023/04/01 09:26:29;;;;;;;2.50;1.40;;;;;;;13.69;44.87;97751.19;5086329;28;20326;-72
2023/04/01 09:29:03;;;;;;;2.45;1.67;;;;;;;13.67;45.54;97777.13;5086059;28;20062;-71
2023/04/01 09:31:50;;;;;;;3.25;1.23;;;;;;;13.32;44.73;97729.78;5086776;28;20082;-72
2023/04/01 09:34:40;;;;;;;1.55;1.10;;;;;;;13.49;44.88;97786.78;5085316;28;20047;-71
2023/04/01 09:37:21;;;;;;;1.83;1.30;;;;;;;13.55;45.16;97812.84;5085452;28;20127;-72
2023/04/01 09:40:17;;;;;;;2.42;1.17;;;;;;;13.46;45.04;97809.22;5086673;28;20200;-72
2023/04/01 09:42:50;;;;;;;1.90;1.10;;;;;;;13.38;46.63;97821.50;5078582;28;20040;-72
2023/04/01 09:45:33;;;;;;;1.73;1.30;;;;;;;13.54;46.42;97810.34;5086520;28;20036;-72
2023/04/01 09:48:15;;;;;;;2.45;1.45;;;;;;;13.79;45.92;97817.75;5084917;28;20044;-72
2023/04/01 09:50:54;;;;;;;1.52;1.27;;;;;;;13.95;45.17;97807.34;5086138;28;20237;-72
2023/04/01 09:53:39;;;;;;;1.95;1.20;;;;;;;13.93;44.69;97816.47;5068404;28;20266;-72
2023/04/01 09:56:41;;;;;;;1.95;1.10;;;;;;;13.95;44.42;97820.66;5085751;28;20115;-72
2023/04/01 09:59:37;;;;;;;2.15;1.30;;;;;;;13.60;44.51;97765.34;5084990;28;20050;-72
2023/04/01 10:02:49;;;;;;;2.00;1.20;;;;;;;14.05;44.42;97812.66;5085798;28;20285;-71
2023/04/01 10:05:55;;;;;;;2.42;1.33;;;;;;;14.26;43.68;97813.28;4988379;28;20057;-72
2023/04/01 10:09:00;;;;;;;3.10;1.55;;;;;;;14.56;43.92;97801.53;4988596;28;20045;-72
2023/04/01 10:12:06;;;;;;;2.92;1.30;;;;;;;14.77;42.83;97809.38;5045658;28;20063;-72
2023/04/01 10:14:59;;;;;;;1.85;1.13;;;;;;;14.94;42.72;97773.88;5059398;28;20057;-71
2023/04/01 10:17:54;;;;;;;1.58;1.10;;;;;;;15.00;40.52;97807.13;5074932;28;20085;-71
2023/04/01 10:21:01;;;;;;;3.72;1.17;;;;;;;14.86;40.60;97789.81;5085142;28;20247;-72
2023/04/01 10:24:03;;;;;;;1.52;1.17;;;;;;;14.84;40.95;97797.13;5084413;28;20071;-72
2023/04/01 10:26:57;;;;;;;1.52;1.00;;;;;;;14.73;41.30;97795.50;5083080;28;20060;-72
2023/04/01 10:30:00;;;;;;;3.03;1.50;;;;;;;14.58;41.90;97801.44;5085300;28;20047;-72
2023/04/01 10:32:57;;;;;;;2.38;1.50;;;;;;;14.36;42.51;97771.47;5074893;28;20066;-73
2023/04/01 10:36:03;;;;;;;2.55;1.50;;;;;;;14.41;42.07;97806.50;5084821;28;20304;-72
2023/04/01 10:39:06;;;;;;;1.90;1.40;;;;;;;14.23;43.02;97802.09;5082052;28;20044;-72
2023/04/01 10:42:00;;;;;;;2.28;1.33;;;;;;;14.13;43.44;97804.78;5084100;28;20123;-72
2023/04/01 10:45:11;;;;;;;2.50;1.33;;;;;;;13.20;43.38;97672.38;5084369;28;20044;-71
2023/04/01 10:48:08;;;;;;;1.92;1.27;;;;;;;13.93;43.70;97811.97;5084796;28;20043;-72
2023/04/01 10:51:06;;;;;;;2.20;1.33;;;;;;;13.88;43.66;97802.72;5084162;28;20116;-72
2023/04/01 10:53:41;;;;;;;2.63;1.80;;;;;;;13.80;44.92;97801.63;5085385;28;20292;-72
2023/04/01 10:56:44;;;;;;;3.55;1.77;;;;;;;13.69;43.89;97795.63;5084206;28;20103;-72
2023/04/01 10:59:55;;;;;;;1.92;1.35;;;;;;;13.68;43.82;97791.28;5085540;28;20033;-72
2023/04/01 11:02:56;;;;;;;2.33;1.35;;;;;;;13.64;44.07;97790.72;5085246;28;20037;-72
2023/04/01 11:05:58;;;;;;;2.65;1.42;;;;;;;13.65;44.03;97800.38;5085169;28;20078;-71
2023/04/01 11:09:25;;;;;;;1.90;1.30;;;;;;;13.68;43.86;97780.63;5043416;28;20051;-72
2023/04/01 11:12:39;;;;;;;2.70;1.38;;;;;;;13.76;43.69;97794.06;5023948;28;20045;-71
2023/04/01 11:15:40;;;;;;;1.65;1.10;;;;;;;13.79;43.66;97799.09;5084257;28;20067;-72
2023/04/01 11:18:38;;;;;;;2.40;1.50;;;;;;;13.73;43.37;97808.50;5067600;28;20041;-72
2023/04/01 11:21:38;;;;;;;2.67;1.10;;;;;;;13.66;43.58;97783.44;5085275;28;20131;-72
2023/04/01 11:24:37;;;;;;;2.95;1.50;;;;;;;13.64;43.63;97788.06;5083948;28;20036;-72
2023/04/01 11:27:19;;;;;;;2.33;1.73;;;;;;;13.37;43.91;97732.84;5078498;28;20128;-72
2023/04/01 11:30:12;;;;;;;1.48;1.10;;;;;;;13.70;43.32;97794.63;5084643;28;20032;-71
2023/04/01 11:32:47;;;;;;;2.83;1.60;;;;;;;13.71;43.80;97785.66;5084750;28;20099;-72
2023/04/01 11:35:48;;;;;;;1.85;1.25;;;;;;;13.80;43.29;97790.13;5084613;28;20028;-72
2023/04/01 11:38:30;;;;;;;2.65;1.40;;;;;;;13.83;43.23;97771.22;5083636;28;20177;-73
2023/04/01 11:41:10;;;;;;;1.73;1.20;;;;;;;13.89;43.92;97783.94;5084217;28;20057;-72
2023/04/01 11:43:45;;;;;;;1.77;1.20;;;;;;;13.33;43.68;97667.59;5087154;28;20041;-72
2023/04/01 11:46:17;;;;;;;2.60;1.30;;;;;;;13.79;44.11;97752.00;5087969;28;20055;-72
2023/04/01 11:49:04;;;;;;;2.83;1.58;;;;;;;13.82;42.51;97758.03;5087268;28;20064;-72
2023/04/01 11:51:44;;;;;;;3.30;1.60;;;;;;;13.95;42.65;97778.03;5087888;28;20042;-72
2023/04/01 11:54:22;;;;;;;3.30;1.83;;;;;;;13.98;42.92;97795.56;5088266;28;20043;-72
2023/04/01 11:57:13;;;;;;;1.88;1.27;;;;;;;14.01;42.09;97797.94;5087953;28;20043;-72
2023/04/01 12:00:12;;;;;;;2.80;1.13;;;;;;;14.03;41.81;97791.47;5088069;28;20037;-72
2023/04/01 12:02:49;;;;;;;1.85;1.20;;;;;;;14.13;42.55;97799.44;5087547;28;20036;-71
2023/04/01 12:05:30;;;;;;;2.10;1.17;;;;;;;13.41;42.42;97653.59;5088231;28;20049;-71
2023/04/01 12:08:26;;;;;;;1.85;1.30;;;;;;;14.35;41.73;97799.09;5086926;28;20198;-71
2023/04/01 12:11:01;;;;;;;1.60;1.08;;;;;;;14.36;42.66;97771.47;5086718;28;20036;-71
2023/04/01 12:13:44;;;;;;;2.55;1.60;;;;;;;14.42;42.33;97773.53;5087823;28;20063;-71
2023/04/01 12:16:37;;;;;;;2.85;1.80;;;;;;;14.41;41.42;97768.34;5088065;28;20058;-71
2023/04/01 12:19:16;;;;;;;2.97;1.75;;;;;;;14.25;42.14;97746.81;5087764;28;20056;-71
2023/04/01 12:21:52;;;;;;;2.15;1.30;;;;;;;14.40;42.08;97782.66;5087423;28;20044;-71